sensor_id;sensor_type;location;lat;lon;timestamp;temperature;humidity
3660;DHT22;1846;51.482;7.224;2023-05-18T00:00:00;9.10;99.90
3660;DHT22;1846;51.482;7.224;2023-05-18T00:02:28;9.20;99.90
3660;DHT22;1846;51.482;7.224;2023-05-18T00:04:57;9.20;99.90
3660;DHT22;1846;51.482;7.224;2023-05-18T00:07:26;9.10;99.90
3660;DHT22;1846;51.482;7.224;2023-05-18T00:09:54;9.10;99.90
3660;DHT22;1846;51.482;7.224;2023-05-18T00:12:22;9.10;99.90
3660;DHT22;1846;51.482;7.224;2023-05-18T00:14:50;9.00;99.90
3660;DHT22;1846;51.482;7.224;2023-05-18T00:17:17;9.00;99.90
3660;DHT22;1846;51.482;7.224;2023-05-18T00:19:45;9.10;99.90
3660;DHT22;1846;51.482;7.224;2023-05-18T00:22:12;9.00;99.90
3660;DHT22;1846;51.482;7.224;2023-05-18T00:24:43;9.00;99.90
3660;DHT22;1846;51.482;7.224;2023-05-18T00:27:10;9.00;99.90
3660;DHT22;1846;51.482;7.224;2023-05-18T00:29:38;9.00;99.90
3660;DHT22;1846;51.482;7.224;2023-05-18T00:32:06;9.00;99.90
3660;DHT22;1846;51.482;7.224;2023-05-18T00:34:33;9.00;99.90
3660;DHT22;1846;51.482;7.224;2023-05-18T00:37:00;9.00;99.90
3660;DHT22;1846;51.482;7.224;2023-05-18T00:39:27;9.00;99.90
3660;DHT22;1846;51.482;7.224;2023-05-18T00:41:54;8.90;99.90
3660;DHT22;1846;51.482;7.224;2023-05-18T00:44:21;9.00;99.90
3660;DHT22;1846;51.482;7.224;2023-05-18T00:46:48;9.00;99.90
3660;DHT22;1846;51.482;7.224;2023-05-18T00:49:19;8.90;99.90
3660;DHT22;1846;51.482;7.224;2023-05-18T00:51:48;8.80;99.90
3660;DHT22;1846;51.482;7.224;2023-05-18T00:54:16;8.80;99.90
3660;DHT22;1846;51.482;7.224;2023-05-18T00:56:43;8.80;99.90
3660;DHT22;1846;51.482;7.224;2023-05-18T00:59:12;8.80;99.90
3660;DHT22;1846;51.482;7.224;2023-05-18T01:01:43;8.70;99.90
3660;DHT22;1846;51.482;7.224;2023-05-18T01:04:11;8.70;99.90
3660;DHT22;1846;51.482;7.224;2023-05-18T01:06:41;8.70;99.90
3660;DHT22;1846;51.482;7.224;2023-05-18T01:09:09;8.70;99.90
3660;DHT22;1846;51.482;7.224;2023-05-18T01:11:48;8.60;99.90
3660;DHT22;1846;51.482;7.224;2023-05-18T01:14:26;8.60;99.90
3660;DHT22;1846;51.482;7.224;2023-05-18T01:16:59;8.60;99.90
3660;DHT22;1846;51.482;7.224;2023-05-18T01:19:54;8.60;99.90
3660;DHT22;1846;51.482;7.224;2023-05-18T01:22:48;8.60;99.90
3660;DHT22;1846;51.482;7.224;2023-05-18T01:25:20;8.50;99.90
3660;DHT22;1846;51.482;7.224;2023-05-18T01:27:53;8.40;99.90
3660;DHT22;1846;51.482;7.224;2023-05-18T01:30:22;8.40;99.90
3660;DHT22;1846;51.482;7.224;2023-05-18T01:32:51;8.40;99.90
3660;DHT22;1846;51.482;7.224;2023-05-18T01:35:18;8.40;99.90
3660;DHT22;1846;51.482;7.224;2023-05-18T01:37:45;8.40;99.90
3660;DHT22;1846;51.482;7.224;2023-05-18T01:40:13;8.30;99.90
3660;DHT22;1846;51.482;7.224;2023-05-18T01:42:45;8.20;99.90
3660;DHT22;1846;51.482;7.224;2023-05-18T01:45:22;8.20;99.90
3660;DHT22;1846;51.482;7.224;2023-05-18T01:47:54;8.20;99.90
3660;DHT22;1846;51.482;7.224;2023-05-18T01:50:30;8.20;99.90
3660;DHT22;1846;51.482;7.224;2023-05-18T01:53:07;8.20;99.90
3660;DHT22;1846;51.482;7.224;2023-05-18T01:55:35;8.20;99.90
3660;DHT22;1846;51.482;7.224;2023-05-18T01:58:06;8.10;99.90
3660;DHT22;1846;51.482;7.224;2023-05-18T02:00:35;8.10;99.90
3660;DHT22;1846;51.482;7.224;2023-05-18T02:03:02;8.00;99.90
3660;DHT22;1846;51.482;7.224;2023-05-18T02:05:29;8.00;99.90
3660;DHT22;1846;51.482;7.224;2023-05-18T02:07:56;8.00;99.90
3660;DHT22;1846;51.482;7.224;2023-05-18T02:10:23;8.00;99.90
3660;DHT22;1846;51.482;7.224;2023-05-18T02:12:50;7.90;99.90
3660;DHT22;1846;51.482;7.224;2023-05-18T02:15:18;7.90;99.90
3660;DHT22;1846;51.482;7.224;2023-05-18T02:17:55;7.80;99.90
3660;DHT22;1846;51.482;7.224;2023-05-18T02:20:22;7.80;1.00
3660;DHT22;1846;51.482;7.224;2023-05-18T02:22:51;7.80;1.00
3660;DHT22;1846;51.482;7.224;2023-05-18T02:25:18;7.70;1.00
3660;DHT22;1846;51.482;7.224;2023-05-18T02:27:45;7.70;1.00
3660;DHT22;1846;51.482;7.224;2023-05-18T02:30:12;7.70;1.00
3660;DHT22;1846;51.482;7.224;2023-05-18T02:32:39;7.70;1.00
3660;DHT22;1846;51.482;7.224;2023-05-18T02:35:13;7.60;1.00
3660;DHT22;1846;51.482;7.224;2023-05-18T02:37:40;7.60;1.00
3660;DHT22;1846;51.482;7.224;2023-05-18T02:40:10;7.60;1.00
3660;DHT22;1846;51.482;7.224;2023-05-18T02:42:37;7.60;1.00
3660;DHT22;1846;51.482;7.224;2023-05-18T02:45:05;7.60;1.00
3660;DHT22;1846;51.482;7.224;2023-05-18T02:47:32;7.70;1.00
3660;DHT22;1846;51.482;7.224;2023-05-18T02:50:00;7.70;1.00
3660;DHT22;1846;51.482;7.224;2023-05-18T02:52:28;7.70;1.00
3660;DHT22;1846;51.482;7.224;2023-05-18T02:54:55;7.80;1.00
3660;DHT22;1846;51.482;7.224;2023-05-18T02:57:22;7.80;1.00
3660;DHT22;1846;51.482;7.224;2023-05-18T02:59:49;7.80;99.90
3660;DHT22;1846;51.482;7.224;2023-05-18T03:02:16;7.80;1.00
3660;DHT22;1846;51.482;7.224;2023-05-18T03:04:43;7.70;1.00
3660;DHT22;1846;51.482;7.224;2023-05-18T03:07:11;7.70;1.00
3660;DHT22;1846;51.482;7.224;2023-05-18T03:09:41;7.60;1.00
3660;DHT22;1846;51.482;7.224;2023-05-18T03:12:08;7.60;1.00
3660;DHT22;1846;51.482;7.224;2023-05-18T03:14:38;7.60;1.00
3660;DHT22;1846;51.482;7.224;2023-05-18T03:17:05;7.60;1.00
3660;DHT22;1846;51.482;7.224;2023-05-18T03:19:32;7.50;1.00
3660;DHT22;1846;51.482;7.224;2023-05-18T03:21:59;7.40;1.00
3660;DHT22;1846;51.482;7.224;2023-05-18T03:24:26;7.40;1.00
3660;DHT22;1846;51.482;7.224;2023-05-18T03:26:56;7.30;1.00
3660;DHT22;1846;51.482;7.224;2023-05-18T03:29:25;7.20;1.00
3660;DHT22;1846;51.482;7.224;2023-05-18T03:31:52;7.20;1.00
3660;DHT22;1846;51.482;7.224;2023-05-18T03:34:19;7.20;1.00
3660;DHT22;1846;51.482;7.224;2023-05-18T03:36:46;7.20;1.00
3660;DHT22;1846;51.482;7.224;2023-05-18T03:39:16;7.10;25.40
3660;DHT22;1846;51.482;7.224;2023-05-18T03:41:48;7.00;99.90
3660;DHT22;1846;51.482;7.224;2023-05-18T03:44:17;7.00;99.90
3660;DHT22;1846;51.482;7.224;2023-05-18T03:46:44;7.00;99.90
3660;DHT22;1846;51.482;7.224;2023-05-18T03:49:13;7.00;99.90
3660;DHT22;1846;51.482;7.224;2023-05-18T03:51:40;6.90;99.90
3660;DHT22;1846;51.482;7.224;2023-05-18T03:54:10;6.90;99.90
3660;DHT22;1846;51.482;7.224;2023-05-18T03:56:37;6.80;99.90
3660;DHT22;1846;51.482;7.224;2023-05-18T03:59:06;6.80;1.00
3660;DHT22;1846;51.482;7.224;2023-05-18T04:01:35;6.80;1.00
3660;DHT22;1846;51.482;7.224;2023-05-18T04:04:02;6.80;99.90
3660;DHT22;1846;51.482;7.224;2023-05-18T04:06:29;6.80;1.00
3660;DHT22;1846;51.482;7.224;2023-05-18T04:08:56;6.80;99.90
3660;DHT22;1846;51.482;7.224;2023-05-18T04:11:27;6.90;1.00
3660;DHT22;1846;51.482;7.224;2023-05-18T04:13:54;6.80;1.00
3660;DHT22;1846;51.482;7.224;2023-05-18T04:16:22;6.80;1.00
3660;DHT22;1846;51.482;7.224;2023-05-18T04:18:55;6.80;1.00
3660;DHT22;1846;51.482;7.224;2023-05-18T04:21:21;6.80;1.00
3660;DHT22;1846;51.482;7.224;2023-05-18T04:23:49;6.80;1.00
3660;DHT22;1846;51.482;7.224;2023-05-18T04:26:16;6.80;99.90
3660;DHT22;1846;51.482;7.224;2023-05-18T04:28:44;6.80;1.00
3660;DHT22;1846;51.482;7.224;2023-05-18T04:31:25;6.90;1.00
3660;DHT22;1846;51.482;7.224;2023-05-18T04:33:55;6.90;1.00
3660;DHT22;1846;51.482;7.224;2023-05-18T04:36:24;6.90;1.00
3660;DHT22;1846;51.482;7.224;2023-05-18T04:38:55;6.90;1.00
3660;DHT22;1846;51.482;7.224;2023-05-18T04:41:24;7.00;1.00
3660;DHT22;1846;51.482;7.224;2023-05-18T04:43:52;7.00;1.00
3660;DHT22;1846;51.482;7.224;2023-05-18T04:46:19;7.00;1.00
3660;DHT22;1846;51.482;7.224;2023-05-18T04:48:47;7.00;1.00
3660;DHT22;1846;51.482;7.224;2023-05-18T04:51:16;7.00;99.90
3660;DHT22;1846;51.482;7.224;2023-05-18T04:53:46;7.00;1.00
3660;DHT22;1846;51.482;7.224;2023-05-18T04:56:15;7.00;1.00
3660;DHT22;1846;51.482;7.224;2023-05-18T04:58:42;7.00;1.00
3660;DHT22;1846;51.482;7.224;2023-05-18T05:01:11;7.10;99.90
3660;DHT22;1846;51.482;7.224;2023-05-18T05:03:39;7.30;99.90
3660;DHT22;1846;51.482;7.224;2023-05-18T05:06:07;7.30;99.90
3660;DHT22;1846;51.482;7.224;2023-05-18T05:08:36;7.40;99.90
3660;DHT22;1846;51.482;7.224;2023-05-18T05:11:05;7.40;31.30
3660;DHT22;1846;51.482;7.224;2023-05-18T05:13:36;7.60;1.00
3660;DHT22;1846;51.482;7.224;2023-05-18T05:16:03;7.60;1.00
3660;DHT22;1846;51.482;7.224;2023-05-18T05:18:30;7.70;1.00
3660;DHT22;1846;51.482;7.224;2023-05-18T05:20:57;7.70;1.00
3660;DHT22;1846;51.482;7.224;2023-05-18T05:23:24;7.70;1.00
3660;DHT22;1846;51.482;7.224;2023-05-18T05:25:53;7.70;1.00
3660;DHT22;1846;51.482;7.224;2023-05-18T05:28:20;7.70;1.00
3660;DHT22;1846;51.482;7.224;2023-05-18T05:30:47;7.70;1.00
3660;DHT22;1846;51.482;7.224;2023-05-18T05:33:14;7.80;1.00
3660;DHT22;1846;51.482;7.224;2023-05-18T05:35:41;7.80;1.00
3660;DHT22;1846;51.482;7.224;2023-05-18T05:38:08;7.90;1.00
3660;DHT22;1846;51.482;7.224;2023-05-18T05:40:36;8.00;1.00
3660;DHT22;1846;51.482;7.224;2023-05-18T05:43:05;8.00;1.00
3660;DHT22;1846;51.482;7.224;2023-05-18T05:45:32;7.90;1.00
3660;DHT22;1846;51.482;7.224;2023-05-18T05:47:59;8.00;1.00
3660;DHT22;1846;51.482;7.224;2023-05-18T05:50:28;8.10;99.90
3660;DHT22;1846;51.482;7.224;2023-05-18T05:52:55;8.20;99.90
3660;DHT22;1846;51.482;7.224;2023-05-18T05:55:22;8.20;99.90
3660;DHT22;1846;51.482;7.224;2023-05-18T05:57:49;8.40;99.90
3660;DHT22;1846;51.482;7.224;2023-05-18T06:00:18;8.40;99.90
3660;DHT22;1846;51.482;7.224;2023-05-18T06:02:47;8.50;99.90
3660;DHT22;1846;51.482;7.224;2023-05-18T06:05:14;8.50;99.90
3660;DHT22;1846;51.482;7.224;2023-05-18T06:07:45;8.50;99.90
3660;DHT22;1846;51.482;7.224;2023-05-18T06:10:15;8.60;99.90
3660;DHT22;1846;51.482;7.224;2023-05-18T06:12:44;8.60;99.90
3660;DHT22;1846;51.482;7.224;2023-05-18T06:15:11;8.70;99.90
3660;DHT22;1846;51.482;7.224;2023-05-18T06:17:40;8.80;99.90
3660;DHT22;1846;51.482;7.224;2023-05-18T06:20:12;8.80;99.90
3660;DHT22;1846;51.482;7.224;2023-05-18T06:22:39;8.90;99.90
3660;DHT22;1846;51.482;7.224;2023-05-18T06:25:06;9.00;99.90
3660;DHT22;1846;51.482;7.224;2023-05-18T06:27:35;9.00;99.90
3660;DHT22;1846;51.482;7.224;2023-05-18T06:30:04;9.10;99.90
3660;DHT22;1846;51.482;7.224;2023-05-18T06:32:32;9.20;99.90
3660;DHT22;1846;51.482;7.224;2023-05-18T06:35:03;9.30;99.90
3660;DHT22;1846;51.482;7.224;2023-05-18T06:37:30;9.40;99.90
3660;DHT22;1846;51.482;7.224;2023-05-18T06:39:57;9.50;99.90
3660;DHT22;1846;51.482;7.224;2023-05-18T06:42:24;9.40;99.90
3660;DHT22;1846;51.482;7.224;2023-05-18T06:44:51;9.50;99.90
3660;DHT22;1846;51.482;7.224;2023-05-18T06:47:18;9.50;99.90
3660;DHT22;1846;51.482;7.224;2023-05-18T06:49:45;9.50;99.90
3660;DHT22;1846;51.482;7.224;2023-05-18T06:52:14;9.60;99.90
3660;DHT22;1846;51.482;7.224;2023-05-18T06:54:44;9.70;99.90
3660;DHT22;1846;51.482;7.224;2023-05-18T06:57:11;9.80;99.90
3660;DHT22;1846;51.482;7.224;2023-05-18T06:59:38;9.90;99.90
3660;DHT22;1846;51.482;7.224;2023-05-18T07:02:05;9.90;99.90
3660;DHT22;1846;51.482;7.224;2023-05-18T07:04:33;9.90;99.90
3660;DHT22;1846;51.482;7.224;2023-05-18T07:07:00;10.00;99.90
3660;DHT22;1846;51.482;7.224;2023-05-18T07:09:28;10.20;99.90
3660;DHT22;1846;51.482;7.224;2023-05-18T07:11:55;10.20;99.90
3660;DHT22;1846;51.482;7.224;2023-05-18T07:14:24;10.30;99.90
3660;DHT22;1846;51.482;7.224;2023-05-18T07:16:51;10.50;95.60
3660;DHT22;1846;51.482;7.224;2023-05-18T07:19:18;10.60;92.20
3660;DHT22;1846;51.482;7.224;2023-05-18T07:21:45;10.60;94.70
3660;DHT22;1846;51.482;7.224;2023-05-18T07:24:12;10.60;86.30
3660;DHT22;1846;51.482;7.224;2023-05-18T07:26:41;10.60;76.60
3660;DHT22;1846;51.482;7.224;2023-05-18T07:29:08;10.70;64.70
3660;DHT22;1846;51.482;7.224;2023-05-18T07:31:35;10.70;59.70
3660;DHT22;1846;51.482;7.224;2023-05-18T07:34:05;10.70;57.40
3660;DHT22;1846;51.482;7.224;2023-05-18T07:36:32;10.80;55.10
3660;DHT22;1846;51.482;7.224;2023-05-18T07:38:59;10.90;55.10
3660;DHT22;1846;51.482;7.224;2023-05-18T07:41:27;10.90;55.10
3660;DHT22;1846;51.482;7.224;2023-05-18T07:43:57;11.10;55.10
3660;DHT22;1846;51.482;7.224;2023-05-18T07:46:24;11.20;48.60
3660;DHT22;1846;51.482;7.224;2023-05-18T07:48:51;11.30;41.60
3660;DHT22;1846;51.482;7.224;2023-05-18T07:51:18;11.30;43.60
3660;DHT22;1846;51.482;7.224;2023-05-18T07:53:45;11.40;42.90
3660;DHT22;1846;51.482;7.224;2023-05-18T07:56:12;11.40;38.90
3660;DHT22;1846;51.482;7.224;2023-05-18T07:58:39;11.60;37.60
3660;DHT22;1846;51.482;7.224;2023-05-18T08:01:08;11.60;34.70
3660;DHT22;1846;51.482;7.224;2023-05-18T08:03:36;11.80;39.80
3660;DHT22;1846;51.482;7.224;2023-05-18T08:06:03;11.80;31.50
3660;DHT22;1846;51.482;7.224;2023-05-18T08:08:30;11.80;29.40
3660;DHT22;1846;51.482;7.224;2023-05-18T08:11:00;11.90;33.10
3660;DHT22;1846;51.482;7.224;2023-05-18T08:13:27;11.90;29.70
3660;DHT22;1846;51.482;7.224;2023-05-18T08:15:54;12.00;26.40
3660;DHT22;1846;51.482;7.224;2023-05-18T08:18:23;12.20;23.20
3660;DHT22;1846;51.482;7.224;2023-05-18T08:20:50;12.30;22.70
3660;DHT22;1846;51.482;7.224;2023-05-18T08:23:18;12.20;22.50
3660;DHT22;1846;51.482;7.224;2023-05-18T08:25:46;12.30;17.60
3660;DHT22;1846;51.482;7.224;2023-05-18T08:28:14;12.20;16.00
3660;DHT22;1846;51.482;7.224;2023-05-18T08:30:41;12.20;15.10
3660;DHT22;1846;51.482;7.224;2023-05-18T08:33:08;12.30;17.90
3660;DHT22;1846;51.482;7.224;2023-05-18T08:35:37;12.40;15.20
3660;DHT22;1846;51.482;7.224;2023-05-18T08:38:04;12.50;15.90
3660;DHT22;1846;51.482;7.224;2023-05-18T08:40:35;12.60;15.70
3660;DHT22;1846;51.482;7.224;2023-05-18T08:43:06;12.60;15.30
3660;DHT22;1846;51.482;7.224;2023-05-18T08:45:40;12.50;11.20
3660;DHT22;1846;51.482;7.224;2023-05-18T08:48:11;12.50;13.00
3660;DHT22;1846;51.482;7.224;2023-05-18T08:50:43;12.60;9.90
3660;DHT22;1846;51.482;7.224;2023-05-18T08:53:11;12.50;9.80
3660;DHT22;1846;51.482;7.224;2023-05-18T08:55:39;12.60;9.80
3660;DHT22;1846;51.482;7.224;2023-05-18T08:58:08;12.70;9.80
3660;DHT22;1846;51.482;7.224;2023-05-18T09:00:37;12.70;9.70
3660;DHT22;1846;51.482;7.224;2023-05-18T09:03:04;12.90;6.10
3660;DHT22;1846;51.482;7.224;2023-05-18T09:05:31;12.90;5.40
3660;DHT22;1846;51.482;7.224;2023-05-18T09:08:00;12.80;12.80
3660;DHT22;1846;51.482;7.224;2023-05-18T09:10:28;12.80;5.20
3660;DHT22;1846;51.482;7.224;2023-05-18T09:12:56;12.90;4.40
3660;DHT22;1846;51.482;7.224;2023-05-18T09:15:24;12.90;5.60
3660;DHT22;1846;51.482;7.224;2023-05-18T09:17:52;13.00;7.60
3660;DHT22;1846;51.482;7.224;2023-05-18T09:20:20;13.20;5.50
3660;DHT22;1846;51.482;7.224;2023-05-18T09:22:47;13.40;5.90
3660;DHT22;1846;51.482;7.224;2023-05-18T09:25:17;13.60;6.40
3660;DHT22;1846;51.482;7.224;2023-05-18T09:27:47;13.70;7.30
3660;DHT22;1846;51.482;7.224;2023-05-18T09:30:16;13.70;4.40
3660;DHT22;1846;51.482;7.224;2023-05-18T09:32:45;13.90;2.50
3660;DHT22;1846;51.482;7.224;2023-05-18T09:35:13;14.00;3.70
3660;DHT22;1846;51.482;7.224;2023-05-18T09:37:40;14.00;2.80
3660;DHT22;1846;51.482;7.224;2023-05-18T09:40:10;14.20;1.00
3660;DHT22;1846;51.482;7.224;2023-05-18T09:42:43;14.40;1.00
3660;DHT22;1846;51.482;7.224;2023-05-18T09:45:21;14.40;1.00
3660;DHT22;1846;51.482;7.224;2023-05-18T09:47:51;14.50;1.00
3660;DHT22;1846;51.482;7.224;2023-05-18T09:50:18;14.50;1.00
3660;DHT22;1846;51.482;7.224;2023-05-18T09:52:45;14.60;1.00
3660;DHT22;1846;51.482;7.224;2023-05-18T09:55:15;14.90;1.60
3660;DHT22;1846;51.482;7.224;2023-05-18T09:57:44;15.10;1.70
3660;DHT22;1846;51.482;7.224;2023-05-18T10:00:13;15.30;1.00
3660;DHT22;1846;51.482;7.224;2023-05-18T10:02:43;15.40;5.70
3660;DHT22;1846;51.482;7.224;2023-05-18T10:05:19;15.50;1.00
3660;DHT22;1846;51.482;7.224;2023-05-18T10:07:47;15.60;1.00
3660;DHT22;1846;51.482;7.224;2023-05-18T10:10:16;15.50;1.00
3660;DHT22;1846;51.482;7.224;2023-05-18T10:12:45;16.00;2.00
3660;DHT22;1846;51.482;7.224;2023-05-18T10:15:14;17.20;3.50
3660;DHT22;1846;51.482;7.224;2023-05-18T10:17:42;18.80;5.80
3660;DHT22;1846;51.482;7.224;2023-05-18T10:20:10;19.90;7.20
3660;DHT22;1846;51.482;7.224;2023-05-18T10:22:39;21.00;7.70
3660;DHT22;1846;51.482;7.224;2023-05-18T10:25:10;22.00;10.60
3660;DHT22;1846;51.482;7.224;2023-05-18T10:27:38;23.10;17.10
3660;DHT22;1846;51.482;7.224;2023-05-18T10:30:09;23.60;16.20
3660;DHT22;1846;51.482;7.224;2023-05-18T10:32:38;24.20;18.90
3660;DHT22;1846;51.482;7.224;2023-05-18T10:35:07;24.80;20.90
3660;DHT22;1846;51.482;7.224;2023-05-18T10:37:37;25.00;20.40
3660;DHT22;1846;51.482;7.224;2023-05-18T10:40:05;25.30;21.60
3660;DHT22;1846;51.482;7.224;2023-05-18T10:42:34;25.50;22.70
3660;DHT22;1846;51.482;7.224;2023-05-18T10:45:01;25.70;23.50
3660;DHT22;1846;51.482;7.224;2023-05-18T10:47:32;26.50;27.20
3660;DHT22;1846;51.482;7.224;2023-05-18T10:50:04;27.80;30.00
3660;DHT22;1846;51.482;7.224;2023-05-18T10:52:32;28.00;29.30
3660;DHT22;1846;51.482;7.224;2023-05-18T10:54:59;27.40;27.80
3660;DHT22;1846;51.482;7.224;2023-05-18T10:57:31;27.60;28.20
3660;DHT22;1846;51.482;7.224;2023-05-18T10:59:59;27.30;28.10
3660;DHT22;1846;51.482;7.224;2023-05-18T11:02:26;27.50;28.30
3660;DHT22;1846;51.482;7.224;2023-05-18T11:04:55;27.80;28.70
3660;DHT22;1846;51.482;7.224;2023-05-18T11:07:22;28.40;29.20
3660;DHT22;1846;51.482;7.224;2023-05-18T11:09:49;28.60;29.50
3660;DHT22;1846;51.482;7.224;2023-05-18T11:12:16;29.20;34.20
3660;DHT22;1846;51.482;7.224;2023-05-18T11:14:48;29.60;36.70
3660;DHT22;1846;51.482;7.224;2023-05-18T11:17:20;29.50;34.00
3660;DHT22;1846;51.482;7.224;2023-05-18T11:20:11;30.00;37.70
3660;DHT22;1846;51.482;7.224;2023-05-18T11:22:45;30.10;36.90
3660;DHT22;1846;51.482;7.224;2023-05-18T11:25:35;29.60;31.30
3660;DHT22;1846;51.482;7.224;2023-05-18T11:28:04;28.70;30.90
3660;DHT22;1846;51.482;7.224;2023-05-18T11:30:44;28.70;29.60
3660;DHT22;1846;51.482;7.224;2023-05-18T11:33:13;27.40;19.00
3660;DHT22;1846;51.482;7.224;2023-05-18T11:35:57;27.50;20.00
3660;DHT22;1846;51.482;7.224;2023-05-18T11:38:49;28.20;24.20
3660;DHT22;1846;51.482;7.224;2023-05-18T11:41:36;28.50;24.50
3660;DHT22;1846;51.482;7.224;2023-05-18T11:44:15;28.30;22.80
3660;DHT22;1846;51.482;7.224;2023-05-18T11:46:53;28.60;24.20
3660;DHT22;1846;51.482;7.224;2023-05-18T11:49:23;27.70;17.10
3660;DHT22;1846;51.482;7.224;2023-05-18T11:52:05;27.20;16.80
3660;DHT22;1846;51.482;7.224;2023-05-18T11:54:40;27.40;17.20
3660;DHT22;1846;51.482;7.224;2023-05-18T11:57:11;27.40;17.30
3660;DHT22;1846;51.482;7.224;2023-05-18T11:59:40;27.60;17.60
3660;DHT22;1846;51.482;7.224;2023-05-18T12:02:08;27.30;15.70
3660;DHT22;1846;51.482;7.224;2023-05-18T12:04:47;27.00;12.70
3660;DHT22;1846;51.482;7.224;2023-05-18T12:07:18;26.50;10.00
3660;DHT22;1846;51.482;7.224;2023-05-18T12:09:45;26.40;8.80
3660;DHT22;1846;51.482;7.224;2023-05-18T12:12:14;25.90;5.30
3660;DHT22;1846;51.482;7.224;2023-05-18T12:14:48;25.90;6.00
3660;DHT22;1846;51.482;7.224;2023-05-18T12:17:18;26.30;7.20
3660;DHT22;1846;51.482;7.224;2023-05-18T12:19:47;26.80;11.00
3660;DHT22;1846;51.482;7.224;2023-05-18T12:22:16;26.90;10.50
3660;DHT22;1846;51.482;7.224;2023-05-18T12:24:44;26.60;8.00
3660;DHT22;1846;51.482;7.224;2023-05-18T12:27:12;26.60;8.40
3660;DHT22;1846;51.482;7.224;2023-05-18T12:29:40;26.00;5.50
3660;DHT22;1846;51.482;7.224;2023-05-18T12:32:08;25.90;5.40
3660;DHT22;1846;51.482;7.224;2023-05-18T12:34:36;25.80;4.90
3660;DHT22;1846;51.482;7.224;2023-05-18T12:37:05;25.60;3.40
3660;DHT22;1846;51.482;7.224;2023-05-18T12:39:36;25.20;1.00
3660;DHT22;1846;51.482;7.224;2023-05-18T12:42:10;24.80;1.00
3660;DHT22;1846;51.482;7.224;2023-05-18T12:44:37;24.30;1.00
3660;DHT22;1846;51.482;7.224;2023-05-18T12:47:05;23.90;1.00
3660;DHT22;1846;51.482;7.224;2023-05-18T12:49:36;24.30;1.00
3660;DHT22;1846;51.482;7.224;2023-05-18T12:52:10;24.80;1.00
3660;DHT22;1846;51.482;7.224;2023-05-18T12:54:49;25.30;1.00
3660;DHT22;1846;51.482;7.224;2023-05-18T12:57:20;25.00;1.00
3660;DHT22;1846;51.482;7.224;2023-05-18T12:59:50;24.80;1.00
3660;DHT22;1846;51.482;7.224;2023-05-18T13:02:30;24.10;1.00
3660;DHT22;1846;51.482;7.224;2023-05-18T13:05:02;23.60;1.00
3660;DHT22;1846;51.482;7.224;2023-05-18T13:07:30;23.10;1.00
3660;DHT22;1846;51.482;7.224;2023-05-18T13:10:10;22.20;1.00
3660;DHT22;1846;51.482;7.224;2023-05-18T13:12:41;22.00;1.00
3660;DHT22;1846;51.482;7.224;2023-05-18T13:15:13;21.40;1.00
3660;DHT22;1846;51.482;7.224;2023-05-18T13:17:53;20.90;1.00
3660;DHT22;1846;51.482;7.224;2023-05-18T13:20:20;20.40;1.00
3660;DHT22;1846;51.482;7.224;2023-05-18T13:22:49;20.00;1.00
3660;DHT22;1846;51.482;7.224;2023-05-18T13:25:17;20.00;1.00
3660;DHT22;1846;51.482;7.224;2023-05-18T13:27:45;20.20;1.00
3660;DHT22;1846;51.482;7.224;2023-05-18T13:30:14;20.00;1.00
3660;DHT22;1846;51.482;7.224;2023-05-18T13:32:41;19.70;1.00
3660;DHT22;1846;51.482;7.224;2023-05-18T13:35:08;19.40;1.00
3660;DHT22;1846;51.482;7.224;2023-05-18T13:37:39;19.30;1.00
3660;DHT22;1846;51.482;7.224;2023-05-18T13:40:08;19.10;1.00
3660;DHT22;1846;51.482;7.224;2023-05-18T13:42:37;19.20;1.00
3660;DHT22;1846;51.482;7.224;2023-05-18T13:45:04;19.00;1.00
3660;DHT22;1846;51.482;7.224;2023-05-18T13:47:32;18.90;1.00
3660;DHT22;1846;51.482;7.224;2023-05-18T13:49:58;18.70;1.00
3660;DHT22;1846;51.482;7.224;2023-05-18T13:52:26;18.50;1.00
3660;DHT22;1846;51.482;7.224;2023-05-18T13:54:53;18.40;1.00
3660;DHT22;1846;51.482;7.224;2023-05-18T13:57:20;18.40;1.00
3660;DHT22;1846;51.482;7.224;2023-05-18T13:59:49;18.50;1.00
3660;DHT22;1846;51.482;7.224;2023-05-18T14:02:17;18.30;1.00
3660;DHT22;1846;51.482;7.224;2023-05-18T14:04:44;18.30;1.00
3660;DHT22;1846;51.482;7.224;2023-05-18T14:07:11;18.20;1.00
3660;DHT22;1846;51.482;7.224;2023-05-18T14:09:38;18.20;1.00
3660;DHT22;1846;51.482;7.224;2023-05-18T14:12:06;18.30;1.00
3660;DHT22;1846;51.482;7.224;2023-05-18T14:14:34;18.10;1.00
3660;DHT22;1846;51.482;7.224;2023-05-18T14:17:03;18.10;1.00
3660;DHT22;1846;51.482;7.224;2023-05-18T14:19:30;18.10;1.00
3660;DHT22;1846;51.482;7.224;2023-05-18T14:21:57;18.20;1.00
3660;DHT22;1846;51.482;7.224;2023-05-18T14:24:25;18.30;1.00
3660;DHT22;1846;51.482;7.224;2023-05-18T14:26:54;18.40;1.00
3660;DHT22;1846;51.482;7.224;2023-05-18T14:29:21;18.20;1.00
3660;DHT22;1846;51.482;7.224;2023-05-18T14:31:48;18.10;1.00
3660;DHT22;1846;51.482;7.224;2023-05-18T14:34:17;18.20;1.00
3660;DHT22;1846;51.482;7.224;2023-05-18T14:36:43;18.30;1.00
3660;DHT22;1846;51.482;7.224;2023-05-18T14:39:11;18.30;1.00
3660;DHT22;1846;51.482;7.224;2023-05-18T14:41:38;18.30;1.00
3660;DHT22;1846;51.482;7.224;2023-05-18T14:44:05;18.50;1.00
3660;DHT22;1846;51.482;7.224;2023-05-18T14:46:34;18.60;1.00
3660;DHT22;1846;51.482;7.224;2023-05-18T14:49:04;18.50;1.00
3660;DHT22;1846;51.482;7.224;2023-05-18T14:51:32;18.50;1.00
3660;DHT22;1846;51.482;7.224;2023-05-18T14:54:00;18.40;1.00
3660;DHT22;1846;51.482;7.224;2023-05-18T14:56:27;18.60;1.00
3660;DHT22;1846;51.482;7.224;2023-05-18T14:58:54;18.60;1.00
3660;DHT22;1846;51.482;7.224;2023-05-18T15:01:21;18.40;1.00
3660;DHT22;1846;51.482;7.224;2023-05-18T15:03:49;18.50;1.00
3660;DHT22;1846;51.482;7.224;2023-05-18T15:06:16;18.60;1.00
3660;DHT22;1846;51.482;7.224;2023-05-18T15:08:45;18.50;1.00
3660;DHT22;1846;51.482;7.224;2023-05-18T15:11:12;18.40;1.00
3660;DHT22;1846;51.482;7.224;2023-05-18T15:13:39;18.50;1.00
3660;DHT22;1846;51.482;7.224;2023-05-18T15:16:07;18.40;1.00
3660;DHT22;1846;51.482;7.224;2023-05-18T15:18:34;18.40;1.00
3660;DHT22;1846;51.482;7.224;2023-05-18T15:21:00;18.30;1.00
3660;DHT22;1846;51.482;7.224;2023-05-18T15:23:27;18.30;1.00
3660;DHT22;1846;51.482;7.224;2023-05-18T15:25:56;18.40;1.00
3660;DHT22;1846;51.482;7.224;2023-05-18T15:28:23;18.30;1.00
3660;DHT22;1846;51.482;7.224;2023-05-18T15:30:50;18.30;1.00
3660;DHT22;1846;51.482;7.224;2023-05-18T15:33:19;18.20;1.00
3660;DHT22;1846;51.482;7.224;2023-05-18T15:35:46;18.10;1.00
3660;DHT22;1846;51.482;7.224;2023-05-18T15:38:13;17.90;1.00
3660;DHT22;1846;51.482;7.224;2023-05-18T15:40:40;18.00;1.00
3660;DHT22;1846;51.482;7.224;2023-05-18T15:43:12;17.80;1.00
3660;DHT22;1846;51.482;7.224;2023-05-18T15:45:39;17.70;1.00
3660;DHT22;1846;51.482;7.224;2023-05-18T15:48:06;17.70;1.00
3660;DHT22;1846;51.482;7.224;2023-05-18T15:50:33;17.70;1.00
3660;DHT22;1846;51.482;7.224;2023-05-18T15:53:00;17.60;1.00
3660;DHT22;1846;51.482;7.224;2023-05-18T15:55:27;17.50;1.00
3660;DHT22;1846;51.482;7.224;2023-05-18T15:57:54;17.40;1.00
3660;DHT22;1846;51.482;7.224;2023-05-18T16:00:22;17.20;1.00
3660;DHT22;1846;51.482;7.224;2023-05-18T16:02:50;17.20;1.00
3660;DHT22;1846;51.482;7.224;2023-05-18T16:05:17;17.40;1.00
3660;DHT22;1846;51.482;7.224;2023-05-18T16:07:44;17.30;1.00
3660;DHT22;1846;51.482;7.224;2023-05-18T16:10:11;17.30;1.00
3660;DHT22;1846;51.482;7.224;2023-05-18T16:12:39;17.20;1.00
3660;DHT22;1846;51.482;7.224;2023-05-18T16:15:07;17.20;1.00
3660;DHT22;1846;51.482;7.224;2023-05-18T16:17:35;17.30;1.00
3660;DHT22;1846;51.482;7.224;2023-05-18T16:20:02;17.40;1.00
3660;DHT22;1846;51.482;7.224;2023-05-18T16:22:30;17.30;1.00
3660;DHT22;1846;51.482;7.224;2023-05-18T16:24:56;17.20;1.00
3660;DHT22;1846;51.482;7.224;2023-05-18T16:27:23;17.10;1.00